Terminal Aerodrome Forecast
Issued by NWS

Home | Current Version | Previous Version | Text Only | Print | Product List | Glossary On
Versions: 1 2 3 4 5 6 7 8 9 10 11 12 13 14 15 16 17 18 19 20 21
000
FTUS43 KAPX 061127
TAFAPN
TAF
KAPN 061127Z 0612/0712 19005KT P6SM SKC
     FM061600 20011G18KT P6SM BKN250
     FM062000 21012G20KT P6SM BKN120
     FM070000 20011KT P6SM BKN100
     FM070400 20007KT P6SM -SN OVC018=

USA.gov is the U.S. government's official web portal to all federal, state and local government web resources and services.